sensor_id;sensor_type;location;lat;lon;timestamp;P1;durP1;ratioP1;P2;durP2;ratioP2
48203;SDS011;33994;50.998;5.864;2022-08-19T00:00:10;22.60;;;20.05;;
48203;SDS011;33994;50.998;5.864;2022-08-19T00:02:57;20.85;;;18.15;;
48203;SDS011;33994;50.998;5.864;2022-08-19T00:05:43;24.60;;;20.70;;
48203;SDS011;33994;50.998;5.864;2022-08-19T00:08:29;25.70;;;20.15;;
48203;SDS011;33994;50.998;5.864;2022-08-19T00:11:15;22.20;;;18.40;;
48203;SDS011;33994;50.998;5.864;2022-08-19T00:14:00;23.52;;;19.77;;
48203;SDS011;33994;50.998;5.864;2022-08-19T00:16:46;21.95;;;18.90;;
48203;SDS011;33994;50.998;5.864;2022-08-19T00:19:32;27.35;;;20.05;;
48203;SDS011;33994;50.998;5.864;2022-08-19T00:22:17;23.00;;;20.13;;
48203;SDS011;33994;50.998;5.864;2022-08-19T00:25:03;25.00;;;20.60;;
48203;SDS011;33994;50.998;5.864;2022-08-19T00:27:50;22.88;;;20.38;;
48203;SDS011;33994;50.998;5.864;2022-08-19T00:30:35;21.88;;;19.52;;
48203;SDS011;33994;50.998;5.864;2022-08-19T00:33:21;22.77;;;19.48;;
48203;SDS011;33994;50.998;5.864;2022-08-19T00:36:06;22.65;;;19.02;;
48203;SDS011;33994;50.998;5.864;2022-08-19T00:41:38;27.50;;;22.80;;
48203;SDS011;33994;50.998;5.864;2022-08-19T00:44:26;30.48;;;24.45;;
48203;SDS011;33994;50.998;5.864;2022-08-19T00:47:13;28.60;;;24.75;;
48203;SDS011;33994;50.998;5.864;2022-08-19T00:49:58;32.83;;;27.15;;
48203;SDS011;33994;50.998;5.864;2022-08-19T00:52:47;28.05;;;22.33;;
48203;SDS011;33994;50.998;5.864;2022-08-19T00:55:34;29.63;;;22.60;;
48203;SDS011;33994;50.998;5.864;2022-08-19T00:58:21;27.30;;;23.17;;
48203;SDS011;33994;50.998;5.864;2022-08-19T01:01:09;25.13;;;21.67;;
48203;SDS011;33994;50.998;5.864;2022-08-19T01:03:55;26.95;;;23.00;;
48203;SDS011;33994;50.998;5.864;2022-08-19T01:06:40;25.92;;;21.83;;
48203;SDS011;33994;50.998;5.864;2022-08-19T01:09:26;27.52;;;21.63;;
48203;SDS011;33994;50.998;5.864;2022-08-19T01:12:11;25.75;;;22.38;;
48203;SDS011;33994;50.998;5.864;2022-08-19T01:14:57;25.33;;;22.13;;
48203;SDS011;33994;50.998;5.864;2022-08-19T01:17:44;32.95;;;25.70;;
48203;SDS011;33994;50.998;5.864;2022-08-19T01:20:30;28.67;;;24.63;;
48203;SDS011;33994;50.998;5.864;2022-08-19T01:23:17;28.77;;;22.73;;
48203;SDS011;33994;50.998;5.864;2022-08-19T01:26:02;33.17;;;24.65;;
48203;SDS011;33994;50.998;5.864;2022-08-19T01:28:49;33.10;;;25.70;;
48203;SDS011;33994;50.998;5.864;2022-08-19T01:31:36;34.13;;;26.00;;
48203;SDS011;33994;50.998;5.864;2022-08-19T01:34:23;30.75;;;25.17;;
48203;SDS011;33994;50.998;5.864;2022-08-19T01:37:09;31.48;;;26.45;;
48203;SDS011;33994;50.998;5.864;2022-08-19T01:39:56;33.85;;;27.60;;
48203;SDS011;33994;50.998;5.864;2022-08-19T01:42:42;32.25;;;26.05;;
48203;SDS011;33994;50.998;5.864;2022-08-19T01:45:28;29.35;;;25.60;;
48203;SDS011;33994;50.998;5.864;2022-08-19T01:48:16;26.73;;;22.67;;
48203;SDS011;33994;50.998;5.864;2022-08-19T01:51:01;30.92;;;24.50;;
48203;SDS011;33994;50.998;5.864;2022-08-19T01:53:47;31.75;;;24.77;;
48203;SDS011;33994;50.998;5.864;2022-08-19T01:56:34;30.10;;;23.88;;
48203;SDS011;33994;50.998;5.864;2022-08-19T01:59:20;29.27;;;24.65;;
48203;SDS011;33994;50.998;5.864;2022-08-19T02:02:08;28.85;;;23.88;;
48203;SDS011;33994;50.998;5.864;2022-08-19T02:04:53;29.77;;;24.55;;
48203;SDS011;33994;50.998;5.864;2022-08-19T02:07:39;30.60;;;25.38;;
48203;SDS011;33994;50.998;5.864;2022-08-19T02:10:26;35.75;;;27.77;;
48203;SDS011;33994;50.998;5.864;2022-08-19T02:13:12;31.70;;;26.38;;
48203;SDS011;33994;50.998;5.864;2022-08-19T02:18:43;31.17;;;26.33;;
48203;SDS011;33994;50.998;5.864;2022-08-19T02:21:29;31.45;;;24.25;;
48203;SDS011;33994;50.998;5.864;2022-08-19T02:24:15;35.55;;;26.70;;
48203;SDS011;33994;50.998;5.864;2022-08-19T02:27:00;30.10;;;24.65;;
48203;SDS011;33994;50.998;5.864;2022-08-19T02:29:46;29.77;;;24.40;;
48203;SDS011;33994;50.998;5.864;2022-08-19T02:32:32;31.38;;;24.65;;
48203;SDS011;33994;50.998;5.864;2022-08-19T02:35:18;29.35;;;24.83;;
48203;SDS011;33994;50.998;5.864;2022-08-19T02:38:03;32.40;;;27.02;;
48203;SDS011;33994;50.998;5.864;2022-08-19T02:41:10;29.15;;;24.20;;
48203;SDS011;33994;50.998;5.864;2022-08-19T02:43:58;33.45;;;26.23;;
48203;SDS011;33994;50.998;5.864;2022-08-19T02:46:46;33.38;;;26.85;;
48203;SDS011;33994;50.998;5.864;2022-08-19T02:49:33;33.72;;;28.08;;
48203;SDS011;33994;50.998;5.864;2022-08-19T02:52:19;36.10;;;27.98;;
48203;SDS011;33994;50.998;5.864;2022-08-19T02:55:07;33.25;;;24.48;;
48203;SDS011;33994;50.998;5.864;2022-08-19T02:57:53;37.03;;;28.88;;
48203;SDS011;33994;50.998;5.864;2022-08-19T03:00:45;31.98;;;25.88;;
48203;SDS011;33994;50.998;5.864;2022-08-19T03:03:33;39.30;;;28.88;;
48203;SDS011;33994;50.998;5.864;2022-08-19T03:06:18;32.63;;;26.65;;
48203;SDS011;33994;50.998;5.864;2022-08-19T03:09:04;37.97;;;29.52;;
48203;SDS011;33994;50.998;5.864;2022-08-19T03:11:50;39.38;;;29.85;;
48203;SDS011;33994;50.998;5.864;2022-08-19T03:14:35;38.13;;;28.30;;
48203;SDS011;33994;50.998;5.864;2022-08-19T03:17:21;42.70;;;32.22;;
48203;SDS011;33994;50.998;5.864;2022-08-19T03:20:07;43.92;;;32.55;;
48203;SDS011;33994;50.998;5.864;2022-08-19T03:22:59;42.03;;;30.23;;
48203;SDS011;33994;50.998;5.864;2022-08-19T03:25:46;42.83;;;30.63;;
48203;SDS011;33994;50.998;5.864;2022-08-19T03:28:33;47.45;;;33.35;;
48203;SDS011;33994;50.998;5.864;2022-08-19T03:31:19;44.70;;;30.08;;
48203;SDS011;33994;50.998;5.864;2022-08-19T03:34:06;43.03;;;30.40;;
48203;SDS011;33994;50.998;5.864;2022-08-19T03:36:52;42.33;;;30.83;;
48203;SDS011;33994;50.998;5.864;2022-08-19T03:39:39;39.80;;;29.73;;
48203;SDS011;33994;50.998;5.864;2022-08-19T03:42:25;47.65;;;32.45;;
48203;SDS011;33994;50.998;5.864;2022-08-19T03:45:11;50.78;;;34.92;;
48203;SDS011;33994;50.998;5.864;2022-08-19T03:47:57;44.92;;;31.05;;
48203;SDS011;33994;50.998;5.864;2022-08-19T03:50:42;47.35;;;32.75;;
48203;SDS011;33994;50.998;5.864;2022-08-19T03:53:28;56.95;;;35.03;;
48203;SDS011;33994;50.998;5.864;2022-08-19T03:56:15;49.70;;;32.45;;
48203;SDS011;33994;50.998;5.864;2022-08-19T03:59:00;47.13;;;32.13;;
48203;SDS011;33994;50.998;5.864;2022-08-19T04:01:46;49.53;;;31.48;;
48203;SDS011;33994;50.998;5.864;2022-08-19T04:04:32;50.83;;;33.72;;
48203;SDS011;33994;50.998;5.864;2022-08-19T04:07:17;49.20;;;32.45;;
48203;SDS011;33994;50.998;5.864;2022-08-19T04:10:05;47.95;;;32.65;;
48203;SDS011;33994;50.998;5.864;2022-08-19T04:12:50;49.50;;;33.33;;
48203;SDS011;33994;50.998;5.864;2022-08-19T04:15:42;57.38;;;34.30;;
48203;SDS011;33994;50.998;5.864;2022-08-19T04:18:30;57.45;;;36.20;;
48203;SDS011;33994;50.998;5.864;2022-08-19T04:21:21;54.58;;;35.03;;
48203;SDS011;33994;50.998;5.864;2022-08-19T04:24:08;54.67;;;34.53;;
48203;SDS011;33994;50.998;5.864;2022-08-19T04:26:54;65.18;;;40.00;;
48203;SDS011;33994;50.998;5.864;2022-08-19T04:29:39;66.55;;;40.63;;
48203;SDS011;33994;50.998;5.864;2022-08-19T04:32:25;67.93;;;40.38;;
48203;SDS011;33994;50.998;5.864;2022-08-19T04:35:10;61.25;;;35.92;;
48203;SDS011;33994;50.998;5.864;2022-08-19T04:37:56;67.35;;;38.22;;
48203;SDS011;33994;50.998;5.864;2022-08-19T04:40:41;66.47;;;37.85;;
48203;SDS011;33994;50.998;5.864;2022-08-19T04:43:47;60.53;;;37.50;;
48203;SDS011;33994;50.998;5.864;2022-08-19T04:46:34;67.13;;;38.13;;
48203;SDS011;33994;50.998;5.864;2022-08-19T04:49:20;71.65;;;40.63;;
48203;SDS011;33994;50.998;5.864;2022-08-19T04:52:07;73.28;;;39.75;;
48203;SDS011;33994;50.998;5.864;2022-08-19T04:54:52;64.50;;;37.05;;
48203;SDS011;33994;50.998;5.864;2022-08-19T04:57:39;67.75;;;39.53;;
48203;SDS011;33994;50.998;5.864;2022-08-19T05:00:24;63.05;;;37.15;;
48203;SDS011;33994;50.998;5.864;2022-08-19T05:03:09;67.95;;;40.50;;
48203;SDS011;33994;50.998;5.864;2022-08-19T05:05:54;68.68;;;38.40;;
48203;SDS011;33994;50.998;5.864;2022-08-19T05:08:41;61.78;;;35.67;;
48203;SDS011;33994;50.998;5.864;2022-08-19T05:11:28;64.07;;;38.45;;
48203;SDS011;33994;50.998;5.864;2022-08-19T05:14:16;67.80;;;39.50;;
48203;SDS011;33994;50.998;5.864;2022-08-19T05:17:02;59.90;;;35.08;;
48203;SDS011;33994;50.998;5.864;2022-08-19T05:19:47;63.83;;;37.47;;
48203;SDS011;33994;50.998;5.864;2022-08-19T05:22:50;72.53;;;41.70;;
48203;SDS011;33994;50.998;5.864;2022-08-19T05:25:38;69.57;;;39.40;;
48203;SDS011;33994;50.998;5.864;2022-08-19T05:28:25;70.85;;;39.92;;
48203;SDS011;33994;50.998;5.864;2022-08-19T05:31:11;66.00;;;38.03;;
48203;SDS011;33994;50.998;5.864;2022-08-19T05:33:56;65.93;;;37.47;;
48203;SDS011;33994;50.998;5.864;2022-08-19T05:36:43;60.38;;;36.08;;
48203;SDS011;33994;50.998;5.864;2022-08-19T05:42:16;56.55;;;33.55;;
48203;SDS011;33994;50.998;5.864;2022-08-19T05:45:04;61.80;;;34.00;;
48203;SDS011;33994;50.998;5.864;2022-08-19T05:47:50;59.58;;;34.88;;
48203;SDS011;33994;50.998;5.864;2022-08-19T05:50:35;55.72;;;33.22;;
48203;SDS011;33994;50.998;5.864;2022-08-19T05:53:21;56.97;;;33.28;;
48203;SDS011;33994;50.998;5.864;2022-08-19T05:56:07;60.33;;;34.00;;
48203;SDS011;33994;50.998;5.864;2022-08-19T05:58:53;54.17;;;32.83;;
48203;SDS011;33994;50.998;5.864;2022-08-19T06:01:42;55.10;;;32.42;;
48203;SDS011;33994;50.998;5.864;2022-08-19T06:04:28;54.20;;;32.35;;
48203;SDS011;33994;50.998;5.864;2022-08-19T06:07:14;53.08;;;31.00;;
48203;SDS011;33994;50.998;5.864;2022-08-19T06:10:00;52.17;;;32.28;;
48203;SDS011;33994;50.998;5.864;2022-08-19T06:12:46;53.45;;;30.42;;
48203;SDS011;33994;50.998;5.864;2022-08-19T06:15:31;47.78;;;27.77;;
48203;SDS011;33994;50.998;5.864;2022-08-19T06:18:16;47.17;;;28.08;;
48203;SDS011;33994;50.998;5.864;2022-08-19T06:21:03;44.20;;;27.13;;
48203;SDS011;33994;50.998;5.864;2022-08-19T06:23:48;43.60;;;26.88;;
48203;SDS011;33994;50.998;5.864;2022-08-19T06:26:35;39.80;;;25.77;;
48203;SDS011;33994;50.998;5.864;2022-08-19T06:29:23;41.72;;;25.45;;
48203;SDS011;33994;50.998;5.864;2022-08-19T06:32:11;50.13;;;28.95;;
48203;SDS011;33994;50.998;5.864;2022-08-19T06:34:57;50.33;;;28.98;;
48203;SDS011;33994;50.998;5.864;2022-08-19T06:37:42;43.13;;;28.08;;
48203;SDS011;33994;50.998;5.864;2022-08-19T06:40:27;49.85;;;28.33;;
48203;SDS011;33994;50.998;5.864;2022-08-19T06:43:13;44.92;;;26.35;;
48203;SDS011;33994;50.998;5.864;2022-08-19T06:46:00;45.85;;;28.60;;
48203;SDS011;33994;50.998;5.864;2022-08-19T06:48:45;44.50;;;26.23;;
48203;SDS011;33994;50.998;5.864;2022-08-19T06:51:32;46.05;;;27.85;;
48203;SDS011;33994;50.998;5.864;2022-08-19T06:54:18;50.93;;;26.23;;
48203;SDS011;33994;50.998;5.864;2022-08-19T06:57:04;46.80;;;26.87;;
48203;SDS011;33994;50.998;5.864;2022-08-19T06:59:50;47.78;;;28.70;;
48203;SDS011;33994;50.998;5.864;2022-08-19T07:02:36;49.30;;;27.23;;
48203;SDS011;33994;50.998;5.864;2022-08-19T07:05:21;45.65;;;26.63;;
48203;SDS011;33994;50.998;5.864;2022-08-19T07:08:07;41.28;;;24.00;;
48203;SDS011;33994;50.998;5.864;2022-08-19T07:10:53;41.83;;;26.90;;
48203;SDS011;33994;50.998;5.864;2022-08-19T07:13:40;47.47;;;28.70;;
48203;SDS011;33994;50.998;5.864;2022-08-19T07:16:27;46.85;;;28.45;;
48203;SDS011;33994;50.998;5.864;2022-08-19T07:19:13;43.25;;;26.75;;
48203;SDS011;33994;50.998;5.864;2022-08-19T07:22:00;39.83;;;25.58;;
48203;SDS011;33994;50.998;5.864;2022-08-19T07:24:47;43.50;;;26.25;;
48203;SDS011;33994;50.998;5.864;2022-08-19T07:27:33;44.88;;;25.35;;
48203;SDS011;33994;50.998;5.864;2022-08-19T07:30:19;39.70;;;24.97;;
48203;SDS011;33994;50.998;5.864;2022-08-19T07:35:51;44.92;;;26.05;;
48203;SDS011;33994;50.998;5.864;2022-08-19T07:38:36;44.67;;;26.25;;
48203;SDS011;33994;50.998;5.864;2022-08-19T07:41:24;44.05;;;26.02;;
48203;SDS011;33994;50.998;5.864;2022-08-19T07:44:10;41.03;;;23.42;;
48203;SDS011;33994;50.998;5.864;2022-08-19T07:46:56;38.90;;;22.50;;
48203;SDS011;33994;50.998;5.864;2022-08-19T07:49:43;40.78;;;23.02;;
48203;SDS011;33994;50.998;5.864;2022-08-19T07:52:29;38.83;;;23.80;;
48203;SDS011;33994;50.998;5.864;2022-08-19T07:55:16;40.45;;;23.45;;
48203;SDS011;33994;50.998;5.864;2022-08-19T07:58:03;34.33;;;21.30;;
48203;SDS011;33994;50.998;5.864;2022-08-19T08:00:49;32.07;;;19.10;;
48203;SDS011;33994;50.998;5.864;2022-08-19T08:03:35;30.38;;;19.25;;
48203;SDS011;33994;50.998;5.864;2022-08-19T08:06:39;30.60;;;18.45;;
48203;SDS011;33994;50.998;5.864;2022-08-19T08:09:42;29.70;;;18.23;;
48203;SDS011;33994;50.998;5.864;2022-08-19T08:12:33;27.23;;;17.40;;
48203;SDS011;33994;50.998;5.864;2022-08-19T08:15:24;25.88;;;16.88;;
48203;SDS011;33994;50.998;5.864;2022-08-19T08:18:10;26.77;;;17.20;;
48203;SDS011;33994;50.998;5.864;2022-08-19T08:20:56;25.40;;;14.98;;
48203;SDS011;33994;50.998;5.864;2022-08-19T08:23:42;25.02;;;14.65;;
48203;SDS011;33994;50.998;5.864;2022-08-19T08:26:27;21.95;;;13.02;;
48203;SDS011;33994;50.998;5.864;2022-08-19T08:29:13;14.45;;;10.27;;
48203;SDS011;33994;50.998;5.864;2022-08-19T08:31:59;20.58;;;12.40;;
48203;SDS011;33994;50.998;5.864;2022-08-19T08:34:45;18.42;;;11.98;;
48203;SDS011;33994;50.998;5.864;2022-08-19T08:37:30;19.75;;;10.98;;
48203;SDS011;33994;50.998;5.864;2022-08-19T08:46:19;15.82;;;9.75;;
48203;SDS011;33994;50.998;5.864;2022-08-19T08:52:51;18.75;;;9.25;;
48203;SDS011;33994;50.998;5.864;2022-08-19T08:55:16;19.83;;;10.02;;
48203;SDS011;33994;50.998;5.864;2022-08-19T08:58:05;16.30;;;9.63;;
48203;SDS011;33994;50.998;5.864;2022-08-19T09:00:57;22.77;;;11.98;;
48203;SDS011;33994;50.998;5.864;2022-08-19T09:03:43;14.90;;;10.10;;
48203;SDS011;33994;50.998;5.864;2022-08-19T09:09:30;17.08;;;8.98;;
48203;SDS011;33994;50.998;5.864;2022-08-19T09:15:18;14.85;;;7.70;;
48203;SDS011;33994;50.998;5.864;2022-08-19T09:18:10;16.52;;;8.43;;
48203;SDS011;33994;50.998;5.864;2022-08-19T09:20:56;14.20;;;9.68;;
48203;SDS011;33994;50.998;5.864;2022-08-19T09:23:41;17.67;;;12.02;;
48203;SDS011;33994;50.998;5.864;2022-08-19T09:26:27;20.43;;;11.33;;
48203;SDS011;33994;50.998;5.864;2022-08-19T09:29:13;16.58;;;10.55;;
48203;SDS011;33994;50.998;5.864;2022-08-19T09:31:58;14.73;;;10.35;;
48203;SDS011;33994;50.998;5.864;2022-08-19T09:34:44;15.75;;;10.65;;
48203;SDS011;33994;50.998;5.864;2022-08-19T09:37:29;14.45;;;10.15;;
48203;SDS011;33994;50.998;5.864;2022-08-19T09:40:14;17.08;;;10.95;;
48203;SDS011;33994;50.998;5.864;2022-08-19T09:43:00;18.63;;;10.90;;
48203;SDS011;33994;50.998;5.864;2022-08-19T09:45:46;16.42;;;10.40;;
48203;SDS011;33994;50.998;5.864;2022-08-19T09:48:32;16.50;;;10.65;;
48203;SDS011;33994;50.998;5.864;2022-08-19T09:51:19;17.20;;;10.85;;
48203;SDS011;33994;50.998;5.864;2022-08-19T09:54:07;15.15;;;10.60;;
48203;SDS011;33994;50.998;5.864;2022-08-19T09:56:53;15.40;;;10.15;;
48203;SDS011;33994;50.998;5.864;2022-08-19T09:59:38;15.02;;;9.63;;
48203;SDS011;33994;50.998;5.864;2022-08-19T10:02:24;18.73;;;10.05;;
48203;SDS011;33994;50.998;5.864;2022-08-19T10:05:10;16.10;;;8.90;;
48203;SDS011;33994;50.998;5.864;2022-08-19T10:08:13;23.25;;;14.40;;
48203;SDS011;33994;50.998;5.864;2022-08-19T10:10:59;15.02;;;10.77;;
48203;SDS011;33994;50.998;5.864;2022-08-19T10:13:45;20.92;;;12.65;;
48203;SDS011;33994;50.998;5.864;2022-08-19T10:16:31;17.30;;;11.30;;
48203;SDS011;33994;50.998;5.864;2022-08-19T10:19:16;18.57;;;11.63;;
48203;SDS011;33994;50.998;5.864;2022-08-19T10:24:50;22.55;;;13.13;;
48203;SDS011;33994;50.998;5.864;2022-08-19T10:27:36;17.57;;;10.73;;
48203;SDS011;33994;50.998;5.864;2022-08-19T10:30:21;15.85;;;9.45;;
48203;SDS011;33994;50.998;5.864;2022-08-19T10:33:07;16.50;;;9.75;;
48203;SDS011;33994;50.998;5.864;2022-08-19T10:35:59;16.30;;;9.82;;
48203;SDS011;33994;50.998;5.864;2022-08-19T10:38:57;15.75;;;10.35;;
48203;SDS011;33994;50.998;5.864;2022-08-19T10:41:45;13.30;;;8.68;;
48203;SDS011;33994;50.998;5.864;2022-08-19T10:44:31;12.65;;;9.25;;
48203;SDS011;33994;50.998;5.864;2022-08-19T10:47:16;24.58;;;10.55;;
48203;SDS011;33994;50.998;5.864;2022-08-19T10:50:02;17.40;;;10.50;;
48203;SDS011;33994;50.998;5.864;2022-08-19T10:53:08;16.42;;;10.52;;
48203;SDS011;33994;50.998;5.864;2022-08-19T10:55:53;16.63;;;9.65;;
48203;SDS011;33994;50.998;5.864;2022-08-19T10:58:57;15.02;;;9.73;;
48203;SDS011;33994;50.998;5.864;2022-08-19T11:04:31;9.55;;;7.30;;
48203;SDS011;33994;50.998;5.864;2022-08-19T11:07:17;12.45;;;7.45;;
48203;SDS011;33994;50.998;5.864;2022-08-19T11:10:03;13.35;;;6.75;;
48203;SDS011;33994;50.998;5.864;2022-08-19T11:12:49;11.55;;;7.22;;
48203;SDS011;33994;50.998;5.864;2022-08-19T11:15:36;11.68;;;6.72;;
48203;SDS011;33994;50.998;5.864;2022-08-19T11:18:22;12.27;;;7.20;;
48203;SDS011;33994;50.998;5.864;2022-08-19T11:21:12;9.80;;;6.18;;
48203;SDS011;33994;50.998;5.864;2022-08-19T11:24:02;12.05;;;7.70;;
48203;SDS011;33994;50.998;5.864;2022-08-19T11:26:50;11.48;;;7.13;;
48203;SDS011;33994;50.998;5.864;2022-08-19T11:29:40;12.07;;;7.40;;
48203;SDS011;33994;50.998;5.864;2022-08-19T11:32:26;8.88;;;5.95;;
48203;SDS011;33994;50.998;5.864;2022-08-19T11:35:11;16.58;;;7.32;;
48203;SDS011;33994;50.998;5.864;2022-08-19T11:37:56;9.25;;;6.20;;
48203;SDS011;33994;50.998;5.864;2022-08-19T11:40:45;11.10;;;5.97;;
48203;SDS011;33994;50.998;5.864;2022-08-19T11:43:39;12.75;;;6.60;;
48203;SDS011;33994;50.998;5.864;2022-08-19T11:46:25;11.85;;;7.47;;
48203;SDS011;33994;50.998;5.864;2022-08-19T11:49:14;11.23;;;5.93;;
48203;SDS011;33994;50.998;5.864;2022-08-19T11:52:03;9.45;;;5.60;;
48203;SDS011;33994;50.998;5.864;2022-08-19T11:54:48;8.27;;;5.97;;
48203;SDS011;33994;50.998;5.864;2022-08-19T11:57:33;8.02;;;5.13;;
48203;SDS011;33994;50.998;5.864;2022-08-19T12:00:19;7.53;;;4.68;;
48203;SDS011;33994;50.998;5.864;2022-08-19T12:03:04;7.97;;;4.03;;
48203;SDS011;33994;50.998;5.864;2022-08-19T12:05:50;7.15;;;3.80;;
48203;SDS011;33994;50.998;5.864;2022-08-19T12:08:35;7.10;;;3.05;;
48203;SDS011;33994;50.998;5.864;2022-08-19T12:11:21;6.60;;;3.13;;
48203;SDS011;33994;50.998;5.864;2022-08-19T12:14:09;7.97;;;3.63;;
48203;SDS011;33994;50.998;5.864;2022-08-19T12:16:57;7.25;;;3.70;;
48203;SDS011;33994;50.998;5.864;2022-08-19T12:19:43;6.47;;;3.80;;
48203;SDS011;33994;50.998;5.864;2022-08-19T12:22:29;7.05;;;3.50;;
48203;SDS011;33994;50.998;5.864;2022-08-19T12:25:14;5.35;;;3.33;;
48203;SDS011;33994;50.998;5.864;2022-08-19T12:27:59;5.50;;;3.42;;
48203;SDS011;33994;50.998;5.864;2022-08-19T12:30:46;5.53;;;3.15;;
48203;SDS011;33994;50.998;5.864;2022-08-19T12:33:32;7.15;;;3.30;;
48203;SDS011;33994;50.998;5.864;2022-08-19T12:36:18;6.60;;;3.50;;
48203;SDS011;33994;50.998;5.864;2022-08-19T12:39:03;6.25;;;4.00;;
48203;SDS011;33994;50.998;5.864;2022-08-19T12:41:49;5.43;;;3.10;;
48203;SDS011;33994;50.998;5.864;2022-08-19T12:44:36;8.60;;;3.23;;
48203;SDS011;33994;50.998;5.864;2022-08-19T12:47:23;6.10;;;3.28;;
48203;SDS011;33994;50.998;5.864;2022-08-19T12:50:10;4.13;;;2.70;;
48203;SDS011;33994;50.998;5.864;2022-08-19T12:52:56;5.70;;;3.13;;
48203;SDS011;33994;50.998;5.864;2022-08-19T12:55:42;4.20;;;2.72;;
48203;SDS011;33994;50.998;5.864;2022-08-19T12:58:28;3.50;;;2.75;;
48203;SDS011;33994;50.998;5.864;2022-08-19T13:01:15;6.90;;;3.28;;
48203;SDS011;33994;50.998;5.864;2022-08-19T13:04:01;6.13;;;2.45;;
48203;SDS011;33994;50.998;5.864;2022-08-19T13:06:47;2.97;;;2.20;;
48203;SDS011;33994;50.998;5.864;2022-08-19T13:09:33;4.35;;;2.00;;
48203;SDS011;33994;50.998;5.864;2022-08-19T13:12:18;3.28;;;2.00;;
48203;SDS011;33994;50.998;5.864;2022-08-19T13:15:04;4.97;;;1.88;;
48203;SDS011;33994;50.998;5.864;2022-08-19T13:20:37;3.10;;;2.20;;
48203;SDS011;33994;50.998;5.864;2022-08-19T13:23:24;5.68;;;2.65;;
48203;SDS011;33994;50.998;5.864;2022-08-19T13:26:10;4.78;;;2.20;;
48203;SDS011;33994;50.998;5.864;2022-08-19T13:28:56;6.80;;;2.17;;
48203;SDS011;33994;50.998;5.864;2022-08-19T13:31:59;3.13;;;2.38;;
48203;SDS011;33994;50.998;5.864;2022-08-19T13:35:03;4.07;;;2.30;;
48203;SDS011;33994;50.998;5.864;2022-08-19T13:37:49;3.28;;;2.42;;
48203;SDS011;33994;50.998;5.864;2022-08-19T13:40:35;7.45;;;2.72;;
48203;SDS011;33994;50.998;5.864;2022-08-19T13:43:21;4.83;;;2.63;;
48203;SDS011;33994;50.998;5.864;2022-08-19T13:46:09;3.90;;;2.40;;
48203;SDS011;33994;50.998;5.864;2022-08-19T13:48:57;5.90;;;2.67;;
48203;SDS011;33994;50.998;5.864;2022-08-19T14:01:03;6.50;;;3.05;;
48203;SDS011;33994;50.998;5.864;2022-08-19T14:06:34;3.35;;;2.15;;
48203;SDS011;33994;50.998;5.864;2022-08-19T14:09:20;11.15;;;2.95;;
48203;SDS011;33994;50.998;5.864;2022-08-19T14:12:05;4.10;;;2.67;;
48203;SDS011;33994;50.998;5.864;2022-08-19T14:14:51;5.87;;;2.33;;
48203;SDS011;33994;50.998;5.864;2022-08-19T14:17:37;4.45;;;2.55;;
48203;SDS011;33994;50.998;5.864;2022-08-19T14:20:24;4.63;;;2.28;;
48203;SDS011;33994;50.998;5.864;2022-08-19T14:23:10;3.83;;;2.40;;
48203;SDS011;33994;50.998;5.864;2022-08-19T14:26:10;2.72;;;2.10;;
48203;SDS011;33994;50.998;5.864;2022-08-19T14:28:58;4.05;;;2.60;;
48203;SDS011;33994;50.998;5.864;2022-08-19T14:31:45;7.70;;;3.28;;
48203;SDS011;33994;50.998;5.864;2022-08-19T14:34:30;3.47;;;2.47;;
48203;SDS011;33994;50.998;5.864;2022-08-19T14:37:17;5.22;;;2.65;;
48203;SDS011;33994;50.998;5.864;2022-08-19T14:40:03;4.50;;;2.80;;
48203;SDS011;33994;50.998;5.864;2022-08-19T14:42:49;4.67;;;2.57;;
48203;SDS011;33994;50.998;5.864;2022-08-19T14:45:35;3.47;;;2.78;;
48203;SDS011;33994;50.998;5.864;2022-08-19T14:48:22;4.60;;;2.30;;
48203;SDS011;33994;50.998;5.864;2022-08-19T14:51:08;6.18;;;2.67;;
48203;SDS011;33994;50.998;5.864;2022-08-19T14:53:54;4.07;;;2.60;;
48203;SDS011;33994;50.998;5.864;2022-08-19T14:56:40;7.32;;;3.08;;
48203;SDS011;33994;50.998;5.864;2022-08-19T14:59:25;4.13;;;2.30;;
48203;SDS011;33994;50.998;5.864;2022-08-19T15:02:10;3.83;;;2.25;;
48203;SDS011;33994;50.998;5.864;2022-08-19T15:04:55;4.45;;;2.35;;
48203;SDS011;33994;50.998;5.864;2022-08-19T15:07:41;3.85;;;2.33;;
48203;SDS011;33994;50.998;5.864;2022-08-19T15:10:26;3.43;;;2.40;;
48203;SDS011;33994;50.998;5.864;2022-08-19T15:13:11;3.42;;;2.28;;
48203;SDS011;33994;50.998;5.864;2022-08-19T15:15:57;3.22;;;2.08;;
48203;SDS011;33994;50.998;5.864;2022-08-19T15:18:42;4.97;;;2.92;;
48203;SDS011;33994;50.998;5.864;2022-08-19T15:21:28;4.70;;;2.13;;
48203;SDS011;33994;50.998;5.864;2022-08-19T15:24:14;4.57;;;2.10;;
48203;SDS011;33994;50.998;5.864;2022-08-19T15:29:47;3.88;;;2.00;;
48203;SDS011;33994;50.998;5.864;2022-08-19T15:32:32;6.72;;;2.15;;
48203;SDS011;33994;50.998;5.864;2022-08-19T15:38:04;4.72;;;1.50;;
48203;SDS011;33994;50.998;5.864;2022-08-19T15:40:50;3.03;;;1.95;;
48203;SDS011;33994;50.998;5.864;2022-08-19T15:43:36;2.85;;;1.80;;
48203;SDS011;33994;50.998;5.864;2022-08-19T15:46:27;4.72;;;2.17;;
48203;SDS011;33994;50.998;5.864;2022-08-19T15:49:15;3.80;;;1.85;;
48203;SDS011;33994;50.998;5.864;2022-08-19T15:52:01;2.22;;;1.50;;
48203;SDS011;33994;50.998;5.864;2022-08-19T15:54:48;4.25;;;1.85;;
48203;SDS011;33994;50.998;5.864;2022-08-19T15:57:33;2.55;;;1.45;;
48203;SDS011;33994;50.998;5.864;2022-08-19T16:00:36;2.53;;;1.40;;
48203;SDS011;33994;50.998;5.864;2022-08-19T16:03:39;4.65;;;2.47;;
48203;SDS011;33994;50.998;5.864;2022-08-19T16:06:39;2.72;;;1.85;;
48203;SDS011;33994;50.998;5.864;2022-08-19T16:09:28;3.92;;;2.28;;
48203;SDS011;33994;50.998;5.864;2022-08-19T16:12:15;4.85;;;1.35;;
48203;SDS011;33994;50.998;5.864;2022-08-19T16:17:48;4.00;;;1.52;;
48203;SDS011;33994;50.998;5.864;2022-08-19T16:20:33;3.60;;;1.58;;
48203;SDS011;33994;50.998;5.864;2022-08-19T16:23:19;2.37;;;1.90;;
48203;SDS011;33994;50.998;5.864;2022-08-19T16:26:05;3.88;;;1.50;;
48203;SDS011;33994;50.998;5.864;2022-08-19T16:28:52;3.55;;;1.50;;
48203;SDS011;33994;50.998;5.864;2022-08-19T16:31:38;3.20;;;1.90;;
48203;SDS011;33994;50.998;5.864;2022-08-19T16:34:26;3.03;;;1.77;;
48203;SDS011;33994;50.998;5.864;2022-08-19T16:37:11;2.13;;;1.70;;
48203;SDS011;33994;50.998;5.864;2022-08-19T16:42:43;2.67;;;1.77;;
48203;SDS011;33994;50.998;5.864;2022-08-19T16:45:28;3.92;;;1.67;;
48203;SDS011;33994;50.998;5.864;2022-08-19T16:48:14;4.43;;;2.63;;
48203;SDS011;33994;50.998;5.864;2022-08-19T16:51:00;6.83;;;2.07;;
48203;SDS011;33994;50.998;5.864;2022-08-19T16:53:51;4.53;;;2.13;;
48203;SDS011;33994;50.998;5.864;2022-08-19T16:56:36;2.90;;;2.25;;
48203;SDS011;33994;50.998;5.864;2022-08-19T16:59:22;2.47;;;2.03;;
48203;SDS011;33994;50.998;5.864;2022-08-19T17:02:08;4.17;;;2.10;;
48203;SDS011;33994;50.998;5.864;2022-08-19T17:04:53;5.03;;;2.50;;
48203;SDS011;33994;50.998;5.864;2022-08-19T17:07:39;3.60;;;2.30;;
48203;SDS011;33994;50.998;5.864;2022-08-19T17:10:24;6.10;;;2.50;;
48203;SDS011;33994;50.998;5.864;2022-08-19T17:13:09;4.20;;;2.38;;
48203;SDS011;33994;50.998;5.864;2022-08-19T17:15:57;3.85;;;2.50;;
48203;SDS011;33994;50.998;5.864;2022-08-19T17:18:43;5.93;;;2.78;;
48203;SDS011;33994;50.998;5.864;2022-08-19T17:21:29;4.47;;;2.42;;
48203;SDS011;33994;50.998;5.864;2022-08-19T17:24:16;3.80;;;2.35;;